Time;durP1;ratioP1;P1;durP2;ratioP2;P2;SDS_P1;SDS_P2;PMS_P1;PMS_P2;Temp;Humidity;BMP_temperature;BMP_pressure;BME280_temperature;BME280_humidity;BME280_pressure;Samples;Min_cycle;Max_cycle;Signal;HPM_P1;HPM_P2
2022/12/21 00:01:16;;;;;;;25.20;15.83;;;;;;;-145.23;100.00;58621.06;5008129;28;20253;-55
2022/12/21 00:03:44;;;;;;;25.27;17.23;;;;;;;-145.23;100.00;58621.06;5017164;28;20232;-55
2022/12/21 00:06:12;;;;;;;31.40;18.20;;;;;;;-145.23;100.00;58621.06;5024061;28;20847;-55
2022/12/21 00:08:41;;;;;;;26.23;17.97;;;;;;;-145.23;100.00;58621.06;5016161;28;20627;-59
2022/12/21 00:11:08;;;;;;;31.83;18.53;;;;;;;-145.23;100.00;58621.06;5025497;28;20315;-55
2022/12/21 00:13:35;;;;;;;28.90;18.27;;;;;;;-145.23;100.00;58621.06;5007871;28;20236;-55
2022/12/21 00:16:03;;;;;;;24.90;17.97;;;;;;;-145.23;100.00;58621.06;5002744;28;20312;-54
2022/12/21 00:18:31;;;;;;;28.10;16.60;;;;;;;-145.23;100.00;58621.06;5009408;28;20754;-55
2022/12/21 00:21:02;;;;;;;27.93;17.27;;;;;;;-145.23;100.00;58621.06;5000203;28;20225;-55
2022/12/21 00:23:31;;;;;;;26.37;16.77;;;;;;;-145.23;100.00;58621.06;5018437;28;20240;-55
2022/12/21 00:25:59;;;;;;;30.93;17.97;;;;;;;-145.23;100.00;58621.06;5007115;28;20231;-55
2022/12/21 00:28:26;;;;;;;26.57;17.57;;;;;;;-145.23;100.00;58621.06;5013226;28;20232;-54
2022/12/21 00:30:53;;;;;;;27.63;17.67;;;;;;;-145.23;100.00;58621.06;5007288;28;20336;-54
2022/12/21 00:33:20;;;;;;;24.27;17.43;;;;;;;-145.23;100.00;58621.06;5006049;28;20240;-56
2022/12/21 00:35:48;;;;;;;29.53;17.77;;;;;;;-145.23;100.00;58621.06;5014346;28;20828;-53
2022/12/21 00:38:16;;;;;;;30.23;18.90;;;;;;;-145.23;100.00;58621.06;5017775;28;20286;-55
2022/12/21 00:40:44;;;;;;;30.80;18.90;;;;;;;-145.23;100.00;58621.06;5016571;28;20229;-53
2022/12/21 00:43:12;;;;;;;28.50;18.30;;;;;;;-145.23;100.00;58621.06;5011602;28;20251;-62
2022/12/21 00:45:39;;;;;;;25.27;16.50;;;;;;;-145.23;100.00;58621.06;5023042;28;20224;-54
2022/12/21 00:48:08;;;;;;;27.00;17.73;;;;;;;-145.23;100.00;58621.06;5013380;28;20233;-54
2022/12/21 00:50:35;;;;;;;30.50;17.57;;;;;;;-145.23;100.00;58621.06;5015956;28;20251;-55
2022/12/21 00:53:02;;;;;;;24.40;18.40;;;;;;;-145.23;100.00;58621.06;5012251;28;20233;-55
2022/12/21 00:55:29;;;;;;;25.27;17.77;;;;;;;-145.23;100.00;58621.06;5014107;28;20243;-55
2022/12/21 00:57:59;;;;;;;28.23;18.27;;;;;;;-145.23;100.00;58621.06;5001017;28;20300;-54
2022/12/21 01:00:26;;;;;;;29.10;19.10;;;;;;;-145.23;100.00;58621.06;5012222;28;20236;-55
2022/12/21 01:02:53;;;;;;;30.23;17.70;;;;;;;-145.23;100.00;58621.06;5019300;28;20259;-54
2022/12/21 01:05:20;;;;;;;28.07;17.43;;;;;;;-145.23;100.00;58621.06;5003911;28;20248;-53
2022/12/21 01:07:48;;;;;;;24.33;16.97;;;;;;;-145.23;100.00;58621.06;5007972;28;20236;-53
2022/12/21 01:10:15;;;;;;;32.43;19.40;;;;;;;-145.23;100.00;58621.06;5013094;28;20294;-53
2022/12/21 01:12:42;;;;;;;28.27;17.73;;;;;;;-145.23;100.00;58621.06;5015073;28;20274;-53
2022/12/21 01:15:11;;;;;;;31.53;19.97;;;;;;;-145.23;100.00;58621.06;5006554;28;20233;-53
2022/12/21 01:17:38;;;;;;;28.80;17.87;;;;;;;-145.23;100.00;58621.06;5016012;28;20282;-54
2022/12/21 01:20:06;;;;;;;32.47;19.67;;;;;;;-145.23;100.00;58621.06;5016934;28;20271;-53
2022/12/21 01:22:33;;;;;;;23.60;16.87;;;;;;;-145.23;100.00;58621.06;5026821;28;20709;-53
2022/12/21 01:25:00;;;;;;;29.00;20.13;;;;;;;-145.23;100.00;58621.06;5016041;28;20228;-55
2022/12/21 01:27:28;;;;;;;30.00;19.97;;;;;;;-145.23;100.00;58621.06;5009220;28;20233;-53
2022/12/21 01:29:54;;;;;;;29.00;18.03;;;;;;;-145.23;100.00;58621.06;5015216;28;20738;-54
2022/12/21 01:32:22;;;;;;;27.43;19.20;;;;;;;-145.23;100.00;58621.06;5009237;28;20262;-54
2022/12/21 01:34:49;;;;;;;31.40;19.83;;;;;;;-145.23;100.00;58621.06;5013140;28;20255;-54
2022/12/21 01:37:15;;;;;;;29.50;19.70;;;;;;;-145.23;100.00;58621.06;5022737;28;20235;-54
2022/12/21 01:39:42;;;;;;;30.70;18.90;;;;;;;-145.23;100.00;58621.06;5019001;28;20230;-53
2022/12/21 01:42:11;;;;;;;30.13;18.47;;;;;;;-145.23;100.00;58621.06;5021787;28;20241;-54
2022/12/21 01:45:02;;;;;;;25.63;18.90;;;;;;;-145.23;100.00;58621.06;5016050;28;20228;-54
2022/12/21 01:47:36;;;;;;;29.00;18.43;;;;;;;-145.23;100.00;58621.06;5009021;28;20233;-54
2022/12/21 01:50:21;;;;;;;28.40;19.17;;;;;;;-145.23;100.00;58621.06;5008067;28;20237;-54
2022/12/21 01:52:48;;;;;;;32.10;20.10;;;;;;;-145.23;100.00;58621.06;5015281;28;20241;-54
2022/12/21 01:55:15;;;;;;;32.20;20.53;;;;;;;-145.23;100.00;58621.06;5009638;28;20225;-55
2022/12/21 01:57:41;;;;;;;28.83;20.23;;;;;;;-145.23;100.00;58621.06;5006824;28;20240;-54
2022/12/21 02:00:09;;;;;;;28.17;19.10;;;;;;;-145.23;100.00;58621.06;5005699;28;20233;-54
2022/12/21 02:02:40;;;;;;;34.30;20.03;;;;;;;-145.23;100.00;58621.06;5010320;28;20677;-54
2022/12/21 02:05:14;;;;;;;29.30;19.57;;;;;;;-145.23;100.00;58621.06;5009300;28;20715;-53
2022/12/21 02:07:42;;;;;;;32.83;21.63;;;;;;;-145.23;100.00;58621.06;5021820;28;20235;-53
2022/12/21 02:10:10;;;;;;;35.07;22.30;;;;;;;-145.23;100.00;58621.06;4999362;28;20231;-54
2022/12/21 02:12:37;;;;;;;34.30;21.33;;;;;;;-145.23;100.00;58621.06;5006022;28;20320;-54
2022/12/21 02:15:05;;;;;;;33.83;20.93;;;;;;;-145.23;100.00;58621.06;5002134;28;20312;-54
2022/12/21 02:17:40;;;;;;;36.47;20.13;;;;;;;-145.23;100.00;58621.06;5012266;28;20231;-55
2022/12/21 02:20:38;;;;;;;29.57;20.17;;;;;;;-145.23;100.00;58621.06;5009783;28;20719;-55
2022/12/21 02:23:48;;;;;;;33.57;21.07;;;;;;;-145.23;100.00;58621.06;5004876;28;20336;-55
2022/12/21 02:26:48;;;;;;;37.33;20.80;;;;;;;-145.23;100.00;58621.06;4978218;28;20307;-55
2022/12/21 02:30:12;;;;;;;37.30;21.80;;;;;;;-145.23;100.00;58621.06;4944807;28;20237;-57
2022/12/21 02:32:57;;;;;;;35.33;20.63;;;;;;;-145.23;100.00;58621.06;4920122;29;20238;-56
2022/12/21 02:35:35;;;;;;;36.37;21.50;;;;;;;-145.23;100.00;58621.06;4926498;29;20319;-56
2022/12/21 02:38:11;;;;;;;34.77;21.13;;;;;;;-145.23;100.00;58621.06;4981178;28;20221;-55
2022/12/21 02:40:43;;;;;;;35.07;21.20;;;;;;;-145.23;100.00;58621.06;5008088;28;20989;-56
2022/12/21 02:46:02;;;;;;;31.27;22.13;;;;;;;-145.23;100.00;58621.06;4993719;28;20232;-56
2022/12/21 02:48:35;;;;;;;37.80;22.93;;;;;;;-145.23;100.00;58621.06;5021221;28;20228;-56
2022/12/21 02:51:05;;;;;;;34.87;22.03;;;;;;;-145.23;100.00;58621.06;5014165;28;20233;-57
2022/12/21 02:53:35;;;;;;;32.60;22.73;;;;;;;-145.23;100.00;58621.06;5003994;28;20322;-57
2022/12/21 02:56:02;;;;;;;39.00;23.27;;;;;;;-145.23;100.00;58621.06;5010876;28;20231;-58
2022/12/21 02:58:29;;;;;;;36.67;21.90;;;;;;;-145.23;100.00;58621.06;5008164;28;20323;-58
2022/12/21 03:01:06;;;;;;;36.80;23.23;;;;;;;-145.23;100.00;58621.06;4999360;28;20771;-56
2022/12/21 03:03:49;;;;;;;37.23;22.30;;;;;;;-145.23;100.00;58621.06;5008640;28;20234;-57
2022/12/21 03:06:28;;;;;;;38.80;23.27;;;;;;;-145.23;100.00;58621.06;5016919;28;20930;-58
2022/12/21 03:09:06;;;;;;;49.27;25.07;;;;;;;-145.23;100.00;58621.06;5003248;28;20246;-55
2022/12/21 03:11:39;;;;;;;37.47;23.83;;;;;;;-145.23;100.00;58621.06;5010890;28;20287;-58
2022/12/21 03:14:10;;;;;;;41.23;23.73;;;;;;;-145.23;100.00;58621.06;5002676;28;20232;-58
2022/12/21 03:16:42;;;;;;;39.53;23.67;;;;;;;-145.23;100.00;58621.06;5001974;28;20251;-57
2022/12/21 03:19:17;;;;;;;39.27;24.17;;;;;;;-145.23;100.00;58621.06;4992226;28;20316;-56
2022/12/21 03:21:46;;;;;;;35.67;23.63;;;;;;;-145.23;100.00;58621.06;5011024;28;20972;-55
2022/12/21 03:24:17;;;;;;;42.30;25.13;;;;;;;-145.23;100.00;58621.06;5009172;28;20261;-56
2022/12/21 03:26:48;;;;;;;35.13;22.07;;;;;;;-145.23;100.00;58621.06;5005067;28;20294;-54
2022/12/21 03:29:18;;;;;;;42.50;23.73;;;;;;;-145.23;100.00;58621.06;5006709;28;20229;-56
2022/12/21 03:31:48;;;;;;;33.97;21.27;;;;;;;-145.23;100.00;58621.06;5016671;28;20243;-57
2022/12/21 03:34:19;;;;;;;39.77;25.63;;;;;;;-145.23;100.00;58621.06;5005815;28;20241;-56
2022/12/21 03:36:50;;;;;;;45.00;26.33;;;;;;;-145.23;100.00;58621.06;5013838;28;20236;-56
2022/12/21 03:39:20;;;;;;;41.00;23.63;;;;;;;-145.23;100.00;58621.06;5002433;28;20256;-55
2022/12/21 03:41:51;;;;;;;43.70;24.50;;;;;;;-145.23;100.00;58621.06;5002675;28;20287;-55
2022/12/21 03:44:20;;;;;;;41.63;25.33;;;;;;;-145.23;100.00;58621.06;5007662;28;20711;-55
2022/12/21 03:46:50;;;;;;;49.73;25.03;;;;;;;-145.23;100.00;58621.06;4997995;28;20234;-56
2022/12/21 03:49:21;;;;;;;40.93;24.83;;;;;;;-145.23;100.00;58621.06;5011828;28;20233;-56
2022/12/21 03:51:50;;;;;;;35.53;22.13;;;;;;;-145.23;100.00;58621.06;5004931;28;20612;-55
2022/12/21 03:54:24;;;;;;;41.80;24.43;;;;;;;-145.23;100.00;58621.06;5006433;28;20612;-57
2022/12/21 03:56:51;;;;;;;41.20;24.57;;;;;;;-145.23;100.00;58621.06;5006819;28;20741;-55
2022/12/21 03:59:18;;;;;;;41.03;23.93;;;;;;;-145.23;100.00;58621.06;5009585;28;20225;-56
2022/12/21 04:01:50;;;;;;;35.63;23.20;;;;;;;-145.23;100.00;58621.06;5005784;28;20232;-54
2022/12/21 04:04:23;;;;;;;37.03;22.40;;;;;;;-145.23;100.00;58621.06;5004261;28;20233;-55
2022/12/21 04:06:51;;;;;;;38.03;24.10;;;;;;;-145.23;100.00;58621.06;5006474;28;20230;-55
2022/12/21 04:09:17;;;;;;;40.50;23.47;;;;;;;-145.23;100.00;58621.06;5004383;28;20243;-55
2022/12/21 04:14:28;;;;;;;37.17;23.83;;;;;;;-145.23;100.00;58621.06;5001336;28;20250;-55
2022/12/21 04:16:55;;;;;;;41.67;23.37;;;;;;;-145.23;100.00;58621.06;5006536;28;20786;-54
2022/12/21 04:22:09;;;;;;;40.07;25.17;;;;;;;-145.23;100.00;58621.06;5004282;28;20282;-55
2022/12/21 04:30:05;;;;;;;42.40;22.50;;;;;;;-145.23;100.00;58621.06;4995247;28;20315;-55
2022/12/21 04:32:32;;;;;;;38.17;23.50;;;;;;;-145.23;100.00;58621.06;5005142;28;20237;-55
2022/12/21 04:35:00;;;;;;;42.67;24.43;;;;;;;-145.23;100.00;58621.06;4998770;28;20990;-54
2022/12/21 04:37:33;;;;;;;44.90;23.63;;;;;;;-145.23;100.00;58621.06;5011260;28;20727;-55
2022/12/21 04:40:01;;;;;;;42.87;26.27;;;;;;;-145.23;100.00;58621.06;4994638;28;20792;-56
2022/12/21 04:42:28;;;;;;;45.07;24.80;;;;;;;-145.23;100.00;58621.06;5001261;28;20244;-54
2022/12/21 04:44:55;;;;;;;43.77;25.87;;;;;;;-145.23;100.00;58621.06;4994997;28;20231;-55
2022/12/21 04:47:22;;;;;;;42.87;24.77;;;;;;;-145.23;100.00;58621.06;5024052;28;20330;-55
2022/12/21 04:49:49;;;;;;;38.70;23.60;;;;;;;-145.23;100.00;58621.06;5021066;28;20237;-54
2022/12/21 04:52:17;;;;;;;43.67;25.87;;;;;;;-145.23;100.00;58621.06;5008870;28;20298;-54
2022/12/21 04:54:44;;;;;;;47.37;25.10;;;;;;;-145.23;100.00;58621.06;5021042;28;20236;-53
2022/12/21 04:57:11;;;;;;;48.30;25.73;;;;;;;-145.23;100.00;58621.06;5009487;28;20233;-55
2022/12/21 04:59:38;;;;;;;43.20;26.13;;;;;;;-145.23;100.00;58621.06;5009397;28;20737;-54
2022/12/21 05:02:06;;;;;;;44.00;23.63;;;;;;;-145.23;100.00;58621.06;5004743;28;20246;-54
2022/12/21 05:04:32;;;;;;;39.60;24.20;;;;;;;-145.23;100.00;58621.06;5019997;28;20732;-53
2022/12/21 05:07:02;;;;;;;40.53;24.77;;;;;;;-145.23;100.00;58621.06;5022906;28;20289;-55
2022/12/21 05:09:31;;;;;;;40.80;22.97;;;;;;;-145.23;100.00;58621.06;5020850;28;20244;-55
2022/12/21 05:11:58;;;;;;;37.17;23.53;;;;;;;-145.23;100.00;58621.06;5011295;28;20260;-55
2022/12/21 05:14:25;;;;;;;36.30;25.57;;;;;;;-145.23;100.00;58621.06;5007347;28;20228;-56
2022/12/21 05:16:53;;;;;;;43.57;25.50;;;;;;;-145.23;100.00;58621.06;5003165;28;20228;-53
2022/12/21 05:19:20;;;;;;;42.00;25.13;;;;;;;-145.23;100.00;58621.06;5005213;28;20336;-54
2022/12/21 05:21:47;;;;;;;40.93;25.73;;;;;;;-145.23;100.00;58621.06;5013859;28;20243;-55
2022/12/21 05:24:14;;;;;;;43.37;25.63;;;;;;;-145.23;100.00;58621.06;5026757;28;20347;-54
2022/12/21 05:26:43;;;;;;;42.87;25.73;;;;;;;-145.23;100.00;58621.06;4999071;28;20462;-54
2022/12/21 05:29:11;;;;;;;47.97;25.90;;;;;;;-145.23;100.00;58621.06;5025561;28;20236;-53
2022/12/21 05:31:38;;;;;;;39.57;22.93;;;;;;;-145.23;100.00;58621.06;5014700;28;20327;-54
2022/12/21 05:34:05;;;;;;;41.13;23.90;;;;;;;-145.23;100.00;58621.06;5022592;28;20233;-54
2022/12/21 05:36:32;;;;;;;39.57;25.03;;;;;;;-145.23;100.00;58621.06;5021538;28;20732;-53
2022/12/21 05:38:59;;;;;;;40.67;24.50;;;;;;;-145.23;100.00;58621.06;5010170;28;20315;-53
2022/12/21 05:41:26;;;;;;;38.83;22.57;;;;;;;-145.23;100.00;58621.06;5011043;28;20343;-54
2022/12/21 05:43:54;;;;;;;36.07;22.73;;;;;;;-145.23;100.00;58621.06;4999336;28;20245;-54
2022/12/21 05:46:21;;;;;;;36.80;24.77;;;;;;;-145.23;100.00;58621.06;4997931;28;20241;-53
2022/12/21 05:48:48;;;;;;;39.83;25.27;;;;;;;-145.23;100.00;58621.06;5026976;28;20243;-54
2022/12/21 05:51:15;;;;;;;41.33;24.10;;;;;;;-145.23;100.00;58621.06;5021458;28;20259;-54
2022/12/21 05:53:43;;;;;;;39.17;24.37;;;;;;;-145.23;100.00;58621.06;5006404;28;20238;-54
2022/12/21 05:56:11;;;;;;;39.30;24.53;;;;;;;-145.23;100.00;58621.06;5008981;28;20232;-53
2022/12/21 05:58:38;;;;;;;39.67;24.43;;;;;;;-145.23;100.00;58621.06;5020121;28;20235;-53
2022/12/21 06:01:08;;;;;;;39.33;25.37;;;;;;;-145.23;100.00;58621.06;5023524;28;20228;-53
2022/12/21 06:03:36;;;;;;;42.53;24.63;;;;;;;-145.23;100.00;58621.06;5011389;28;20237;-54
2022/12/21 06:06:04;;;;;;;40.07;24.83;;;;;;;-145.23;100.00;58621.06;5016774;28;20694;-55
2022/12/21 06:08:31;;;;;;;35.40;24.70;;;;;;;-145.23;100.00;58621.06;5022011;28;20228;-54
2022/12/21 06:11:03;;;;;;;40.07;25.43;;;;;;;-145.23;100.00;58621.06;5023014;28;20233;-53
2022/12/21 06:13:30;;;;;;;43.10;25.13;;;;;;;-145.23;100.00;58621.06;5018772;28;20244;-55
2022/12/21 06:16:02;;;;;;;38.27;25.03;;;;;;;-145.23;100.00;58621.06;5005606;28;20233;-54
2022/12/21 06:18:31;;;;;;;43.20;25.47;;;;;;;-145.23;100.00;58621.06;5018485;28;20241;-53
2022/12/21 06:20:57;;;;;;;37.63;22.87;;;;;;;-145.23;100.00;58621.06;5020621;28;20228;-54
2022/12/21 06:23:25;;;;;;;40.40;26.10;;;;;;;-145.23;100.00;58621.06;4996782;28;20661;-54
2022/12/21 06:25:56;;;;;;;41.03;24.57;;;;;;;-145.23;100.00;58621.06;5002870;28;20800;-54
2022/12/21 06:28:23;;;;;;;39.87;24.03;;;;;;;-145.23;100.00;58621.06;5003103;28;20233;-54
2022/12/21 06:30:51;;;;;;;38.30;23.97;;;;;;;-145.23;100.00;58621.06;5009033;28;20719;-54
2022/12/21 06:33:19;;;;;;;34.40;23.00;;;;;;;-145.23;100.00;58621.06;5002486;28;20332;-55
2022/12/21 06:35:48;;;;;;;37.80;23.30;;;;;;;-145.23;100.00;58621.06;5010508;28;20302;-54
2022/12/21 06:38:15;;;;;;;38.60;23.90;;;;;;;-145.23;100.00;58621.06;5021138;28;20237;-55
2022/12/21 06:40:42;;;;;;;38.07;24.57;;;;;;;-145.23;100.00;58621.06;5012325;28;20243;-54
2022/12/21 06:43:09;;;;;;;39.00;23.93;;;;;;;-145.23;100.00;58621.06;5012049;28;20257;-53
2022/12/21 06:45:36;;;;;;;41.30;23.30;;;;;;;-145.23;100.00;58621.06;5017347;28;20241;-53
2022/12/21 06:48:04;;;;;;;34.93;23.10;;;;;;;-145.23;100.00;58621.06;5015937;28;20639;-54
2022/12/21 06:50:31;;;;;;;40.10;23.73;;;;;;;-145.23;100.00;58621.06;5008336;28;20715;-55
2022/12/21 06:53:00;;;;;;;38.37;24.10;;;;;;;-145.23;100.00;58621.06;5012514;28;20331;-54
2022/12/21 06:55:27;;;;;;;40.10;26.40;;;;;;;-145.23;100.00;58621.06;5019840;28;20228;-54
2022/12/21 06:57:54;;;;;;;39.30;25.17;;;;;;;-145.23;100.00;58621.06;5008673;28;20606;-53
2022/12/21 07:00:22;;;;;;;39.47;24.63;;;;;;;-145.23;100.00;58621.06;5011905;28;20225;-55
2022/12/21 07:02:49;;;;;;;39.53;25.20;;;;;;;-145.23;100.00;58621.06;5006687;28;20260;-53
2022/12/21 07:05:16;;;;;;;38.37;26.77;;;;;;;-145.23;100.00;58621.06;5003458;28;20287;-53
2022/12/21 07:07:43;;;;;;;40.13;25.17;;;;;;;-145.23;100.00;58621.06;5001231;28;20241;-53
2022/12/21 07:10:12;;;;;;;43.23;26.07;;;;;;;-145.23;100.00;58621.06;5000216;28;20237;-54
2022/12/21 07:12:39;;;;;;;41.27;25.47;;;;;;;-145.23;100.00;58621.06;5018722;28;20251;-55
2022/12/21 07:15:06;;;;;;;44.67;24.23;;;;;;;-145.23;100.00;58621.06;5008954;28;20278;-55
2022/12/21 07:17:33;;;;;;;41.33;24.10;;;;;;;-145.23;100.00;58621.06;5003057;28;20232;-53
2022/12/21 07:20:00;;;;;;;38.70;24.33;;;;;;;-145.23;100.00;58621.06;5007821;28;20245;-54
2022/12/21 07:22:27;;;;;;;35.47;24.77;;;;;;;-145.23;100.00;58621.06;5022359;28;20236;-53
2022/12/21 07:24:54;;;;;;;42.00;24.50;;;;;;;-145.23;100.00;58621.06;5030622;28;20301;-53
2022/12/21 07:27:23;;;;;;;39.10;26.80;;;;;;;-145.23;100.00;58621.06;5022105;28;20321;-54
2022/12/21 07:29:50;;;;;;;40.00;25.27;;;;;;;-145.23;100.00;58621.06;5026020;28;20286;-54
2022/12/21 07:32:17;;;;;;;37.13;24.80;;;;;;;-145.23;100.00;58621.06;5025328;28;20259;-55
2022/12/21 07:34:44;;;;;;;41.80;26.50;;;;;;;-145.23;100.00;58621.06;5026666;28;20224;-55
2022/12/21 07:37:11;;;;;;;37.37;26.10;;;;;;;-145.23;100.00;58621.06;5025200;28;20240;-54
2022/12/21 07:39:39;;;;;;;35.97;24.90;;;;;;;-145.23;100.00;58621.06;5023894;28;20232;-54
2022/12/21 07:42:06;;;;;;;37.03;24.30;;;;;;;-145.23;100.00;58621.06;5024968;28;20236;-53
2022/12/21 07:44:34;;;;;;;35.47;24.27;;;;;;;-145.23;100.00;58621.06;5022285;28;20248;-54
2022/12/21 07:47:01;;;;;;;32.70;23.70;;;;;;;-145.23;100.00;58621.06;5023632;28;20236;-54
2022/12/21 07:49:28;;;;;;;36.23;24.90;;;;;;;-145.23;100.00;58621.06;5009504;28;20316;-55
2022/12/21 07:51:55;;;;;;;31.23;23.23;;;;;;;-145.23;100.00;58621.06;5020951;28;20652;-53
2022/12/21 07:54:22;;;;;;;37.43;24.70;;;;;;;-145.23;100.00;58621.06;5023023;28;20393;-54
2022/12/21 07:56:49;;;;;;;36.17;24.27;;;;;;;-145.23;100.00;58621.06;5020933;28;20282;-54
2022/12/21 07:59:16;;;;;;;39.67;26.63;;;;;;;-145.23;100.00;58621.06;5026481;28;20225;-54
2022/12/21 08:01:45;;;;;;;35.93;24.10;;;;;;;-145.23;100.00;58621.06;5024949;28;20223;-54
2022/12/21 08:04:11;;;;;;;35.80;24.13;;;;;;;-145.23;100.00;58621.06;5023688;28;20237;-56
2022/12/21 08:06:38;;;;;;;41.23;25.37;;;;;;;-145.23;100.00;58621.06;5034257;28;20228;-53
2022/12/21 08:09:05;;;;;;;33.30;22.70;;;;;;;-145.23;100.00;58621.06;5027016;28;20243;-55
2022/12/21 08:11:33;;;;;;;41.87;25.87;;;;;;;-145.23;100.00;58621.06;5031426;28;20818;-58
2022/12/21 08:14:00;;;;;;;37.93;26.63;;;;;;;-145.23;100.00;58621.06;5031398;28;20283;-54
2022/12/21 08:16:27;;;;;;;35.47;24.13;;;;;;;-145.23;100.00;58621.06;5021983;28;20290;-54
2022/12/21 08:18:56;;;;;;;34.37;22.77;;;;;;;-145.23;100.00;58621.06;5023762;28;20239;-53
2022/12/21 08:21:23;;;;;;;37.13;24.77;;;;;;;-145.23;100.00;58621.06;5022938;28;20264;-54
2022/12/21 08:23:50;;;;;;;32.10;21.60;;;;;;;-145.23;100.00;58621.06;5025018;28;20271;-53
2022/12/21 08:26:17;;;;;;;32.23;22.17;;;;;;;-145.23;100.00;58621.06;5034307;28;20343;-54
2022/12/21 08:28:44;;;;;;;31.93;22.50;;;;;;;-145.23;100.00;58621.06;5032764;28;20250;-54
2022/12/21 08:31:14;;;;;;;37.60;23.60;;;;;;;-145.23;100.00;58621.06;5024230;28;20818;-54
2022/12/21 08:33:42;;;;;;;37.47;23.10;;;;;;;-145.23;100.00;58621.06;5023631;28;20830;-54
2022/12/21 08:36:11;;;;;;;30.03;23.43;;;;;;;-145.23;100.00;58621.06;5021714;28;20236;-53
2022/12/21 08:38:39;;;;;;;31.43;23.50;;;;;;;-145.23;100.00;58621.06;5025467;28;20235;-54
2022/12/21 08:41:06;;;;;;;35.20;21.93;;;;;;;-145.23;100.00;58621.06;5038957;28;20240;-55
2022/12/21 08:43:35;;;;;;;33.30;21.83;;;;;;;-145.23;100.00;58621.06;5022109;28;20240;-56
2022/12/21 08:46:03;;;;;;;30.07;22.10;;;;;;;-145.23;100.00;58621.06;5024075;28;20227;-53
2022/12/21 08:48:30;;;;;;;27.63;21.03;;;;;;;-145.23;100.00;58621.06;5021270;28;20233;-54
2022/12/21 08:50:57;;;;;;;33.70;21.73;;;;;;;-145.23;100.00;58621.06;5026989;28;20282;-54
2022/12/21 08:53:26;;;;;;;37.43;23.17;;;;;;;-145.23;100.00;58621.06;5019825;28;20965;-55
2022/12/21 08:55:54;;;;;;;29.87;23.23;;;;;;;-145.23;100.00;58621.06;5024080;28;20270;-54
2022/12/21 08:58:21;;;;;;;34.93;22.40;;;;;;;-145.23;100.00;58621.06;5022381;28;20224;-54
2022/12/21 09:00:48;;;;;;;31.27;22.47;;;;;;;-145.23;100.00;58621.06;5017173;28;20243;-54
2022/12/21 09:03:15;;;;;;;32.63;22.10;;;;;;;-145.23;100.00;58621.06;5024056;28;20353;-53
2022/12/21 09:05:42;;;;;;;32.20;23.37;;;;;;;-145.23;100.00;58621.06;5020605;28;20242;-54
2022/12/21 09:08:09;;;;;;;30.03;22.07;;;;;;;-145.23;100.00;58621.06;5021520;28;20224;-54
2022/12/21 09:10:38;;;;;;;36.97;23.30;;;;;;;-145.23;100.00;58621.06;5022789;28;20281;-55
2022/12/21 09:13:05;;;;;;;34.00;23.90;;;;;;;-145.23;100.00;58621.06;5016783;28;20291;-55
2022/12/21 09:15:32;;;;;;;29.47;22.40;;;;;;;-145.23;100.00;58621.06;5023724;28;20781;-54
2022/12/21 09:17:59;;;;;;;33.30;23.60;;;;;;;-145.23;100.00;58621.06;5001782;28;20675;-55
2022/12/21 09:20:26;;;;;;;33.87;22.40;;;;;;;-145.23;100.00;58621.06;5005625;28;20331;-52
2022/12/21 09:22:53;;;;;;;32.90;23.37;;;;;;;-145.23;100.00;58621.06;5008889;28;20260;-54
2022/12/21 09:25:20;;;;;;;33.63;23.10;;;;;;;-145.23;100.00;58621.06;5008559;28;20894;-53
2022/12/21 09:27:48;;;;;;;34.00;22.57;;;;;;;-145.23;100.00;58621.06;5004547;28;20332;-53
2022/12/21 09:30:16;;;;;;;30.47;23.40;;;;;;;-145.23;100.00;58621.06;4986357;28;20638;-53
2022/12/21 09:32:43;;;;;;;33.57;24.00;;;;;;;-145.23;100.00;58621.06;4984185;28;20313;-54
2022/12/21 09:35:10;;;;;;;32.03;23.63;;;;;;;-145.23;100.00;58621.06;4984766;28;20288;-54
2022/12/21 09:37:37;;;;;;;31.63;22.13;;;;;;;-145.23;100.00;58621.06;4992496;28;20233;-54
2022/12/21 09:40:05;;;;;;;30.77;22.33;;;;;;;-145.23;100.00;58621.06;5003679;28;20249;-54
2022/12/21 09:42:37;;;;;;;29.37;21.33;;;;;;;-145.23;100.00;58621.06;5012918;28;20239;-53
2022/12/21 09:45:11;;;;;;;35.90;22.80;;;;;;;-145.23;100.00;58621.06;5025457;28;20242;-55
2022/12/21 09:47:42;;;;;;;32.57;23.10;;;;;;;-145.23;100.00;58621.06;5014431;28;20574;-54
2022/12/21 09:50:16;;;;;;;32.70;23.47;;;;;;;-145.23;100.00;58621.06;5025554;28;20240;-54
2022/12/21 09:52:46;;;;;;;27.57;20.73;;;;;;;-145.23;100.00;58621.06;5013204;28;20233;-53
2022/12/21 09:55:17;;;;;;;30.30;23.37;;;;;;;-145.23;100.00;58621.06;5022146;28;20229;-55
2022/12/21 09:57:44;;;;;;;26.80;20.47;;;;;;;-145.23;100.00;58621.06;5023497;28;20233;-54
2022/12/21 10:00:17;;;;;;;31.97;22.90;;;;;;;-145.23;100.00;58621.06;5019471;28;20237;-53
2022/12/21 10:03:12;;;;;;;31.80;21.97;;;;;;;-145.23;100.00;58621.06;5003568;28;20240;-54
2022/12/21 10:05:57;;;;;;;28.23;22.93;;;;;;;-145.23;100.00;58621.06;4999360;28;20324;-54
2022/12/21 10:08:58;;;;;;;26.90;21.97;;;;;;;-145.23;100.00;58621.06;5008689;28;20233;-54
2022/12/21 10:11:34;;;;;;;30.00;21.03;;;;;;;-145.23;100.00;58621.06;5008543;28;20968;-54
2022/12/21 10:14:04;;;;;;;26.80;19.63;;;;;;;-145.23;100.00;58621.06;5026366;28;20247;-53
2022/12/21 10:16:41;;;;;;;29.73;22.33;;;;;;;-145.23;100.00;58621.06;5010735;28;20576;-53
2022/12/21 10:19:17;;;;;;;31.70;23.33;;;;;;;-145.23;100.00;58621.06;5007203;28;20239;-54
2022/12/21 10:21:49;;;;;;;28.87;20.83;;;;;;;-145.23;100.00;58621.06;5007272;28;20236;-54
2022/12/21 10:24:22;;;;;;;28.43;20.57;;;;;;;-145.23;100.00;58621.06;5008698;28;20574;-52
2022/12/21 10:26:52;;;;;;;22.20;19.13;;;;;;;-145.23;100.00;58621.06;5010059;28;20233;-55
2022/12/21 10:29:21;;;;;;;34.43;25.37;;;;;;;-145.23;100.00;58621.06;5025692;28;20245;-55
2022/12/21 10:31:49;;;;;;;29.83;21.60;;;;;;;-145.23;100.00;58621.06;5022216;28;20228;-54
2022/12/21 10:34:18;;;;;;;27.87;20.23;;;;;;;-145.23;100.00;58621.06;5003670;28;20235;-53
2022/12/21 10:36:46;;;;;;;25.47;20.03;;;;;;;-145.23;100.00;58621.06;5007261;28;20240;-54
2022/12/21 10:39:14;;;;;;;27.80;20.10;;;;;;;-145.23;100.00;58621.06;5007420;28;20887;-54
2022/12/21 10:41:44;;;;;;;30.37;21.37;;;;;;;-145.23;100.00;58621.06;5000975;28;20252;-55
2022/12/21 10:44:13;;;;;;;29.57;20.40;;;;;;;-145.23;100.00;58621.06;5012692;28;20303;-54
2022/12/21 10:46:39;;;;;;;31.10;21.50;;;;;;;-145.23;100.00;58621.06;5014127;28;20233;-55
2022/12/21 10:49:15;;;;;;;25.73;21.13;;;;;;;-145.23;100.00;58621.06;5014335;28;20728;-55
2022/12/21 10:51:42;;;;;;;27.07;19.80;;;;;;;-145.23;100.00;58621.06;5016224;28;20229;-55
2022/12/21 10:54:10;;;;;;;24.87;19.17;;;;;;;-145.23;100.00;58621.06;5025909;28;20252;-54
2022/12/21 10:56:41;;;;;;;27.03;21.17;;;;;;;-145.23;100.00;58621.06;5010335;28;20824;-54
2022/12/21 10:59:15;;;;;;;26.10;21.23;;;;;;;-145.23;100.00;58621.06;5019162;28;20319;-53
2022/12/21 11:01:42;;;;;;;30.20;19.80;;;;;;;-145.23;100.00;58621.06;5012631;28;20315;-54
2022/12/21 11:04:14;;;;;;;27.30;20.80;;;;;;;-145.23;100.00;58621.06;5017731;28;20236;-57
2022/12/21 11:06:55;;;;;;;24.03;19.40;;;;;;;-145.23;100.00;58621.06;4999923;28;20229;-54
2022/12/21 11:09:28;;;;;;;24.83;20.63;;;;;;;-145.23;100.00;58621.06;5006264;28;20229;-54
2022/12/21 11:11:55;;;;;;;26.50;19.97;;;;;;;-145.23;100.00;58621.06;5004492;28;20233;-55
2022/12/21 11:14:23;;;;;;;29.17;21.63;;;;;;;-145.23;100.00;58621.06;5004924;28;20241;-54
2022/12/21 11:16:49;;;;;;;24.30;19.60;;;;;;;-145.23;100.00;58621.06;5014866;28;20240;-54
2022/12/21 11:19:19;;;;;;;29.70;21.13;;;;;;;-145.23;100.00;58621.06;5031944;28;20301;-65